Other Surface Observations
Issued by NWS

Home | Current Version | Previous Version | Text Only | Print | Product List | Glossary On
Versions: 1 2 3 4 5 6 7 8 9 10 11 12 13 14 15 16 17 18 19 20 21 22 23 24 25 26 27 28 29 30 31 32 33 34 35 36 37 38 39 40 41 42 43 44 45 46 47 48 49 50
000
SXAK55 KWBC 250349
OSOAK
:SHEF ENCODED 6-MINUTE NOS MET DATA
:NATIONAL WATER LEVEL OBSERVATION NETWORK (NWLON)
:TA(AIR TEMP DEG F)  SLP(SEA LEVEL PRESSURE INCHES)
:UD(WIND DIRECTION WHOLE DEGREES) US (WIND SPEED MPH)
:TW(WATER TEMP DEG F) UG(WIND GUSTS MPH) WC(CONDUCTIVITY uMHOS/CM)
:-9999 (MISSING VALUES)
:PROVIDED BY DOC/NOAA/NOS/CO-OPS, (301) 713-2540
:corms@noaa.gov
.E KECA2 20190525 Z DH0318/TAIRG/DIN06/   52/   51/   52/   51
.E KECA2 20190525 Z DH0318/PLIRG/DIN06/30.10/30.10/30.10/30.10
.E KECA2 20190525 Z DH0318/USIRG/DIN06/    9/    9/    6/   11
.E KECA2 20190525 Z DH0318/UDIRG/DIN06/  318/  314/  322/  325
.E KECA2 20190525 Z DH0318/UGIRG/DIN06/   18/   17/   12/   22
.E KECA2 20190525 Z DH0318/TWIRG/DIN06/   49/   49/   49/   49
.A PLXA2 20190525 Z DH0330/TAIRG    53/UGIRG     6/PLIRG 30.14/UDIRG   316/USIRG     4/TWIRG    47/WCIRG -9999
.E ITKA2 20190525 Z DH0330/TAIRG/DIN06/   51/   51
.E ITKA2 20190525 Z DH0330/PLIRG/DIN06/30.17/30.17
.E ITKA2 20190525 Z DH0330/TWIRG/DIN06/   48/   48
.E JNEA2 20190525 Z DH0330/TAIRG/DIN06/   56/   56
.E JNEA2 20190525 Z DH0330/PLIRG/DIN06/30.13/30.12
.E JNEA2 20190525 Z DH0330/USIRG/DIN06/    7/    6
.E JNEA2 20190525 Z DH0330/UDIRG/DIN06/  281/  271
.E JNEA2 20190525 Z DH0330/UGIRG/DIN06/   11/   10
.E JNEA2 20190525 Z DH0330/TWIRG/DIN06/   43/   43
.A SKTA2 20190525 Z DH0330/TAIRG    56/UGIRG -9999/PLIRG 30.10/UDIRG -9999/USIRG -9999/TWIRG    50/WCIRG -9999
.E ELFA2 20190525 Z DH0330/TAIRG/DIN06/   49/   49
.E ELFA2 20190525 Z DH0330/PLIRG/DIN06/30.20/30.20
.E ELFA2 20190525 Z DH0330/TWIRG/DIN06/   46/   46
.A YATA2 20190525 Z DH0336/TAIRG -9999/UGIRG -9999/PLIRG 30.23/UDIRG -9999/USIRG -9999/TWIRG    50/WCIRG -9999
.E CRVA2 20190525 Z DH0324/TAIRG/DIN06/   54/   54
.E CRVA2 20190525 Z DH0324/PLIRG/DIN06/30.19/30.19
.E CRVA2 20190525 Z DH0324/USIRG/DIN06/    8/    9
.E CRVA2 20190525 Z DH0324/UDIRG/DIN06/   27/   28
.E CRVA2 20190525 Z DH0324/UGIRG/DIN06/   10/   10
.E CRVA2 20190525 Z DH0324/TWIRG/DIN06/   47/   47
.E VDZA2 20190525 Z DH0330/TAIRG/DIN06/   55/   55
.E VDZA2 20190525 Z DH0330/PLIRG/DIN06/30.18/30.18
.E VDZA2 20190525 Z DH0330/USIRG/DIN06/    6/    7
.E VDZA2 20190525 Z DH0330/UDIRG/DIN06/  253/  252
.E VDZA2 20190525 Z DH0330/UGIRG/DIN06/    9/   10
.E VDZA2 20190525 Z DH0330/TWIRG/DIN06/   46/   47
.A SWLA2 20190525 Z DH0330/TAIRG -9999/UGIRG -9999/PLIRG 30.16/UDIRG -9999/USIRG -9999/TWIRG    48/WCIRG -9999
.A OVIA2 20190525 Z DH0336/TAIRG -9999/UGIRG -9999/PLIRG 30.18/UDIRG -9999/USIRG -9999/TWIRG    46/WCIRG -9999
.A NKTA2 20190525 Z DH0330/TAIRG    50/UGIRG    10/PLIRG 30.19/UDIRG     3/USIRG     9/TWIRG    46/WCIRG -9999
.A KDAA2 20190525 Z DH0330/TAIRG    47/UGIRG    13/PLIRG 30.17/UDIRG    10/USIRG    10/TWIRG    47/WCIRG -9999
.A ALIA2 20190525 Z DH0336/TAIRG    47/UGIRG    25/PLIRG 30.09/UDIRG    72/USIRG    16/TWIRG    47/WCIRG -9999
.E SNDA2 20190525 Z DH0330/TAIRG/DIN06/   45/   45
.E SNDA2 20190525 Z DH0330/PLIRG/DIN06/29.87/29.87
.E SNDA2 20190525 Z DH0330/USIRG/DIN06/   20/   21
.E SNDA2 20190525 Z DH0330/UDIRG/DIN06/   54/   50
.E SNDA2 20190525 Z DH0330/UGIRG/DIN06/   34/   32
.E SNDA2 20190525 Z DH0330/TWIRG/DIN06/   44/   44
.A KGCA2 20190525 Z DH0336/TAIRG    44/UGIRG    30/PLIRG 29.82/UDIRG    33/USIRG    23/TWIRG    44/WCIRG -9999
.A ADKA2 20190525 Z DH0330/TAIRG    41/UGIRG    21/PLIRG 30.04/UDIRG    16/USIRG    14/TWIRG    44/WCIRG -9999
.E ATKA2 20190525 Z DH0330/TAIRG/DIN06/   46/   46
.E ATKA2 20190525 Z DH0330/PLIRG/DIN06/29.92/29.91
.E ATKA2 20190525 Z DH0330/USIRG/DIN06/   14/   11
.E ATKA2 20190525 Z DH0330/UDIRG/DIN06/  329/  332
.E ATKA2 20190525 Z DH0330/UGIRG/DIN06/   21/   25
.E ATKA2 20190525 Z DH0330/TWIRG/DIN06/   43/   43
.E UNLA2 20190525 Z DH0330/TAIRG/DIN06/   44/   44
.E UNLA2 20190525 Z DH0330/PLIRG/DIN06/29.80/29.80
.E UNLA2 20190525 Z DH0330/USIRG/DIN06/    4/    6
.E UNLA2 20190525 Z DH0330/UDIRG/DIN06/   69/   57
.E UNLA2 20190525 Z DH0330/UGIRG/DIN06/    6/    8
.E UNLA2 20190525 Z DH0330/TWIRG/DIN06/   46/   46
.A VCVA2 20190525 Z DH0336/TAIRG -9999/UGIRG -9999/PLIRG 30.04/UDIRG -9999/USIRG -9999/TWIRG    43/WCIRG -9999
.E NMTA2 20190525 Z DH0318/TAIRG/DIN06/   37/   37/   37
.E NMTA2 20190525 Z DH0318/PLIRG/DIN06/30.20/30.19/30.19
.E NMTA2 20190525 Z DH0318/USIRG/DIN06/   21/   21/   21
.E NMTA2 20190525 Z DH0318/UDIRG/DIN06/  264/  267/  268
.E NMTA2 20190525 Z DH0318/UGIRG/DIN06/   23/   24/   23
.A RDDA2 20190525 Z DH0330/TAIRG    36/UGIRG     4/PLIRG 30.20/UDIRG   224/USIRG     1/TWIRG    39/WCIRG -9999
.E PRDA2 20190525 Z DH0318/TAIRG/DIN06/   36/   36/   36
.E PRDA2 20190525 Z DH0318/PLIRG/DIN06/30.11/30.11/30.11
.E PRDA2 20190525 Z DH0318/USIRG/DIN06/   21/   18/   23
.E PRDA2 20190525 Z DH0318/UDIRG/DIN06/  262/  267/  269
.E PRDA2 20190525 Z DH0318/UGIRG/DIN06/   25/   24/   31
.E PRDA2 20190525 Z DH0318/TWIRG/DIN06/   30/   30/   30



USA.gov is the U.S. government's official web portal to all federal, state and local government web resources and services.